Hauptseite
METAR-TAF:

METAR-TAF

Flughäfen :

Flugplatz Hamburg-Finkenwerder

Finkenwerder, Deutschland

Breite: 53-32N, Länge: 009-50E, Höhe: 5 m

Beobachtung

Neuester Wetterbericht von vor 17 Minuten, um 01:20 UTC
Wind 8 kt aus Nord
Temperatur -1°C
Luftfeuchtigkeit 80%
Luftdruck 1023 hPa
Sichtweite 10 km oder mehr

METAR: EDHI 050120Z AUTO 36008KT 9999 // NCD M01/M04 Q1023

Zeit: 02:37 (01:37 UTC)

Prognose

Neuester Wetterbericht von vor 8 Stunden und 37 Minuten, um 17:00 UTC
Gültige Prognose vom 04 um 18 UTC bis 04 um 21 UTC
Wind 8 kt aus Nord/Nordost
Sichtweite 10 km oder mehr
keine Wolken unter 1500 m und keine Kumulonimbus oder Gewitterwolken
Wahrscheinlichkeit 30% :
Zeitweise
vom 04 um 18 UTC bis 04 um 20 UTC
Leicht bewölkt in der Höhe von 800 ft
Durchbrochene Bewölkung in der Höhe von 1400 ft

TAF: EDHI 041700Z 0418/0421 02008KT CAVOK PROB30 TEMPO 0418/0420 FEW008 BKN014

Wetterbeobachtungen und Prognosen von mehr als 4000 Flughäfen (METAR und TAF Bericht).

Die verfügbaren Stationen werden durch gelbe und rote Markierungen auf der Karte dargestellt.

Führen Sie die Maus auf sie, um den Namen der Station zu sehen.

Darauf klicken, um die Beobachtung von Wetterbeobachtungen und Prognosen zu sehen.

Um die Karte zu ändern : klicken Sie auf den grünen Tasten mit einem schwarzen Kreuz Zum Vergrößern, auf den grünen Button mit einem Gedankenstrich zu verkleinern, oder auf die grünen Pfeile für benachbarte Karten.


METAR-TAF: